createdAt,value
2018-02-10T00:01:58.012Z,101036.53
2018-02-10T00:06:59.561Z,101039.53
2018-02-10T00:12:00.898Z,101037.75
2018-02-10T00:17:02.267Z,101047.06
2018-02-10T00:22:04.420Z,101046.94
2018-02-10T00:27:05.772Z,101052.12
2018-02-10T00:32:07.878Z,101049.94
2018-02-10T00:37:09.973Z,101054.28
2018-02-10T00:42:12.047Z,101049.66
2018-02-10T00:47:13.412Z,101055.31
2018-02-10T00:52:14.786Z,101045.73
2018-02-10T00:57:16.150Z,101057.87
2018-02-10T01:02:18.220Z,101056.44
2018-02-10T01:07:19.559Z,101050.31
2018-02-10T01:12:21.619Z,101055.88
2018-02-10T01:17:22.954Z,101058.36
2018-02-10T01:22:24.349Z,101062.81
2018-02-10T01:27:25.707Z,101063.12
2018-02-10T01:32:27.057Z,101057.61
2018-02-10T01:37:28.383Z,101064.29
2018-02-10T01:42:29.780Z,101059.09
2018-02-10T01:47:31.120Z,101054.08
2018-02-10T01:52:32.515Z,101053.66
2018-02-10T01:57:33.938Z,101053.86
2018-02-10T02:02:35.281Z,101052.28
2018-02-10T02:07:36.798Z,101051.52
2018-02-10T02:12:38.215Z,101047.32
2018-02-10T02:17:39.598Z,101048.44
2018-02-10T02:22:40.994Z,101054.51
2018-02-10T02:27:42.561Z,101048.13
2018-02-10T02:32:43.939Z,101047.83
2018-02-10T02:37:45.299Z,101046.52
2018-02-10T02:42:46.659Z,101054.17
2018-02-10T02:47:47.988Z,101043.74
2018-02-10T02:52:50.069Z,101050.09
2018-02-10T02:57:51.412Z,101048.16
2018-02-10T03:02:52.777Z,101052.37
2018-02-10T03:07:54.881Z,101053.73
2018-02-10T03:12:56.211Z,101059.38
2018-02-10T03:17:57.586Z,101053.09
2018-02-10T03:22:58.898Z,101056.70
2018-02-10T03:28:00.240Z,101066.18
2018-02-10T03:33:01.586Z,101064.81
2018-02-10T03:38:02.968Z,101064.69
2018-02-10T03:43:04.378Z,101062.64
2018-02-10T03:48:05.784Z,101055.44
2018-02-10T03:53:07.261Z,101065.56
2018-02-10T03:58:08.621Z,101058.88
2018-02-10T04:03:09.950Z,101056.80
2018-02-10T04:08:11.342Z,101059.70
2018-02-10T04:13:12.759Z,101055.98
2018-02-10T04:18:14.888Z,101050.91
2018-02-10T04:23:16.277Z,101054.02
2018-02-10T04:28:18.731Z,101049.88
2018-02-10T04:33:20.716Z,101048.28
2018-02-10T04:38:23.032Z,101053.48
2018-02-10T04:43:25.354Z,101050.52
2018-02-10T04:48:26.802Z,101057.84
2018-02-10T04:53:28.136Z,101060.86
2018-02-10T04:58:29.499Z,101069.93
2018-02-10T05:03:30.895Z,101070.45
2018-02-10T05:08:32.977Z,101076.44
2018-02-10T05:13:34.440Z,101078.56
2018-02-10T05:18:36.782Z,101077.67
2018-02-10T05:23:39.022Z,101080.63
2018-02-10T05:28:40.504Z,101084.93
2018-02-10T05:33:45.414Z,101074.64
2018-02-10T05:38:46.892Z,101073.75
2018-02-10T05:43:49.102Z,101073.66
2018-02-10T05:48:50.459Z,101069.84
2018-02-10T05:53:51.819Z,101059.78
2018-02-10T05:58:53.907Z,101061.80
2018-02-10T06:03:55.318Z,101059.81
2018-02-10T06:08:56.686Z,101078.50
2018-02-10T06:13:58.080Z,101079.09
2018-02-10T06:18:59.755Z,101082.19
2018-02-10T06:24:01.107Z,101080.56
2018-02-10T06:29:03.292Z,101087.05
2018-02-10T06:34:04.972Z,101087.09
2018-02-10T06:39:06.797Z,101094.42
2018-02-10T06:44:10.728Z,101086.30
2018-02-10T06:49:12.117Z,101077.67
2018-02-10T06:54:14.207Z,101076.05
2018-02-10T06:59:15.526Z,101082.15
2018-02-10T07:04:16.903Z,101084.77
2018-02-10T07:09:18.290Z,101080.91
2018-02-10T07:14:19.826Z,101080.98
2018-02-10T07:19:21.224Z,101065.95
2018-02-10T07:24:22.741Z,101072.03
2018-02-10T07:29:24.955Z,101084.59
2018-02-10T07:34:26.314Z,101082.91
2018-02-10T07:39:27.684Z,101084.20
2018-02-10T07:44:29.046Z,101074.77
2018-02-10T07:49:31.228Z,101078.23
2018-02-10T07:54:33.528Z,101082.14
2018-02-10T07:59:35.735Z,101083.04
2018-02-10T08:04:37.082Z,101086.09
2018-02-10T08:09:38.549Z,101084.81
2018-02-10T08:14:40.677Z,101077.50
2018-02-10T08:19:42.111Z,101081.39
2018-02-10T08:24:43.418Z,101081.86
2018-02-10T08:29:44.771Z,101089.62
2018-02-10T08:34:46.155Z,101086.61
2018-02-10T08:39:47.507Z,101086.62
2018-02-10T08:44:48.856Z,101090.09
2018-02-10T08:49:50.200Z,101085.34
2018-02-10T08:54:52.303Z,101090.09
2018-02-10T08:59:54.406Z,101093.53
2018-02-10T09:04:55.748Z,101092.23
2018-02-10T09:09:57.105Z,101096.11
2018-02-10T09:14:58.474Z,101097.83
2018-02-10T09:20:00.613Z,101087.02
2018-02-10T09:25:03.618Z,101088.30
2018-02-10T09:30:05.786Z,101088.73
2018-02-10T09:35:07.166Z,101096.95
2018-02-10T09:40:08.522Z,101096.94
2018-02-10T09:45:09.848Z,101098.65
2018-02-10T09:50:11.222Z,101096.50
2018-02-10T09:55:12.595Z,101093.46
2018-02-10T10:00:14.793Z,101096.50
2018-02-10T10:05:18.294Z,101099.95
2018-02-10T10:10:19.687Z,101093.88
2018-02-10T10:15:21.069Z,101093.02
2018-02-10T10:20:22.411Z,101090.41
2018-02-10T10:25:24.166Z,101098.63
2018-02-10T10:30:25.527Z,101092.56
2018-02-10T10:35:26.859Z,101099.50
2018-02-10T10:40:28.279Z,101100.34
2018-02-10T10:45:29.639Z,101103.77
2018-02-10T10:50:31.036Z,101096.38
2018-02-10T10:55:32.563Z,101080.81
2018-02-10T11:00:34.086Z,101079.48
2018-02-10T11:05:36.268Z,101076.42
2018-02-10T11:10:38.463Z,101071.63
2018-02-10T11:15:39.827Z,101069.91
2018-02-10T11:20:41.333Z,101071.65
2018-02-10T11:25:42.702Z,101074.20
2018-02-10T11:30:44.091Z,101074.59
2018-02-10T11:35:45.566Z,101081.01
2018-02-10T11:40:46.967Z,101081.91
2018-02-10T11:45:48.313Z,101077.64
2018-02-10T11:50:49.658Z,101074.62
2018-02-10T11:55:51.059Z,101074.16
2018-02-10T12:00:52.412Z,101073.76
2018-02-10T12:05:53.797Z,101070.69
2018-02-10T12:10:55.196Z,101074.13
2018-02-10T12:15:56.554Z,101068.47
2018-02-10T12:20:57.994Z,101061.15
2018-02-10T12:25:59.311Z,101057.64
2018-02-10T12:31:00.666Z,101055.44
2018-02-10T12:36:02.024Z,101053.28
2018-02-10T12:41:03.403Z,101047.13
2018-02-10T12:46:04.716Z,101040.09
2018-02-10T12:51:06.030Z,101031.42
2018-02-10T12:56:08.114Z,101037.08
2018-02-10T13:01:09.489Z,101024.47
2018-02-10T13:06:10.944Z,101021.81
2018-02-10T13:11:12.288Z,101017.44
2018-02-10T13:16:13.791Z,101003.09
2018-02-10T13:21:15.151Z,101002.09
2018-02-10T13:26:16.487Z,101000.30
2018-02-10T13:31:18.688Z,100989.79
2018-02-10T13:36:20.034Z,100979.14
2018-02-10T13:41:21.435Z,100979.80
2018-02-10T13:46:22.849Z,100979.05
2018-02-10T13:51:24.275Z,100976.81
2018-02-10T13:56:25.894Z,100973.98
2018-02-10T14:01:27.358Z,100976.13
2018-02-10T14:06:28.738Z,100979.89
2018-02-10T14:11:30.164Z,100965.16
2018-02-10T14:16:31.510Z,100968.66
2018-02-10T14:21:32.903Z,100961.91
2018-02-10T14:26:34.246Z,100964.16
2018-02-10T14:31:35.590Z,100956.48
2018-02-10T14:36:36.915Z,100956.59
2018-02-10T14:41:38.268Z,100954.90
2018-02-10T14:46:39.635Z,100945.63
2018-02-10T14:51:40.989Z,100945.81
2018-02-10T14:56:42.375Z,100944.16
2018-02-10T15:01:43.798Z,100946.27
2018-02-10T15:06:45.288Z,100950.99
2018-02-10T15:11:47.401Z,100944.20
2018-02-10T15:16:48.846Z,100943.25
2018-02-10T15:21:50.180Z,100944.97
2018-02-10T15:26:51.562Z,100935.61
2018-02-10T15:32:12.102Z,100934.74
2018-02-10T15:37:14.278Z,100948.63
2018-02-10T15:42:15.671Z,100949.14
2018-02-10T15:47:17.013Z,100939.63
2018-02-10T15:52:18.346Z,100937.53
2018-02-10T15:57:19.680Z,100933.20
2018-02-10T16:02:21.040Z,100928.91
2018-02-10T16:07:22.367Z,100929.78
2018-02-10T16:12:23.772Z,100931.95
2018-02-10T16:17:25.158Z,100936.73
2018-02-10T16:22:26.526Z,100929.44
2018-02-10T16:27:28.673Z,100925.55
2018-02-10T16:32:30.052Z,100915.20
2018-02-10T16:37:31.409Z,100924.77
2018-02-10T16:42:33.527Z,100936.40
2018-02-10T16:47:34.882Z,100929.52
2018-02-10T16:52:36.244Z,100928.25
2018-02-10T16:57:37.570Z,100929.96
2018-02-10T17:02:39.078Z,100914.78
2018-02-10T17:07:41.134Z,100903.98
2018-02-10T17:12:42.726Z,100896.61
2018-02-10T17:17:44.124Z,100903.11
2018-02-10T17:22:46.770Z,100899.65
2018-02-10T17:27:48.090Z,100900.03
2018-02-10T17:32:50.135Z,100899.11
2018-02-10T17:37:51.494Z,100884.39
2018-02-10T17:42:52.803Z,100870.06
2018-02-10T17:47:54.162Z,100876.12
2018-02-10T17:52:56.222Z,100872.59
2018-02-10T17:58:00.399Z,100856.59
2018-02-10T18:03:02.508Z,100873.38
2018-02-10T18:08:03.848Z,100855.37
2018-02-10T18:13:05.219Z,100861.67
2018-02-10T18:18:06.658Z,100865.20
2018-02-10T18:23:08.011Z,100859.94
2018-02-10T18:28:09.396Z,100859.94
2018-02-10T18:33:10.884Z,100856.91
2018-02-10T18:38:12.237Z,100852.52
2018-02-10T18:43:13.550Z,100838.02
2018-02-10T18:48:15.662Z,100841.47
2018-02-10T18:53:17.791Z,100839.75
2018-02-10T18:58:19.178Z,100839.36
2018-02-10T19:03:20.585Z,100828.43
2018-02-10T19:08:21.918Z,100825.05
2018-02-10T19:13:23.346Z,100821.97
2018-02-10T19:18:24.698Z,100812.42
2018-02-10T19:23:26.117Z,100817.15
2018-02-10T19:28:28.224Z,100814.52
2018-02-10T19:33:29.688Z,100819.30
2018-02-10T19:38:31.116Z,100807.98
2018-02-10T19:43:32.599Z,100792.42
2018-02-10T19:48:34.700Z,100783.39
2018-02-10T19:53:36.178Z,100778.59
2018-02-10T19:58:37.558Z,100779.06
2018-02-10T20:03:39.611Z,100779.05
2018-02-10T20:08:40.932Z,100789.38
2018-02-10T20:13:42.355Z,100780.36
2018-02-10T20:18:43.734Z,100777.25
2018-02-10T20:23:45.068Z,100765.96
2018-02-10T20:28:46.435Z,100752.23
2018-02-10T20:33:47.742Z,100736.78
2018-02-10T20:38:49.258Z,100726.66
2018-02-10T20:43:51.366Z,100734.50
2018-02-10T20:48:57.014Z,100730.52
2018-02-10T20:53:58.553Z,100724.69
2018-02-10T20:59:00.038Z,100718.08
2018-02-10T21:04:02.271Z,100714.64
2018-02-10T21:09:04.638Z,100702.89
2018-02-10T21:14:06.035Z,100692.47
2018-02-10T21:19:07.400Z,100692.16
2018-02-10T21:24:08.751Z,100681.20
2018-02-10T21:29:10.168Z,100667.75
2018-02-10T21:34:11.527Z,100657.52
2018-02-10T21:39:12.906Z,100655.40
2018-02-10T21:44:14.975Z,100647.27
2018-02-10T21:49:16.327Z,100638.67
2018-02-10T21:54:17.628Z,100641.28
2018-02-10T21:59:19.008Z,100631.02
2018-02-10T22:04:20.396Z,100625.86
2018-02-10T22:09:21.758Z,100621.17
2018-02-10T22:14:23.931Z,100619.06
2018-02-10T22:19:25.318Z,100602.17
2018-02-10T22:24:26.709Z,100596.63
2018-02-10T22:29:28.076Z,100591.46
2018-02-10T22:34:29.624Z,100581.86
2018-02-10T22:39:31.180Z,100579.34
2018-02-10T22:44:32.557Z,100571.06
2018-02-10T22:49:33.906Z,100565.85
2018-02-10T22:54:35.990Z,100559.48
2018-02-10T22:59:37.355Z,100545.30
2018-02-10T23:04:38.699Z,100537.30
2018-02-10T23:09:40.869Z,100529.51
2018-02-10T23:14:42.249Z,100519.94
2018-02-10T23:19:43.616Z,100499.30
2018-02-10T23:24:44.996Z,100473.79
2018-02-10T23:29:46.335Z,100460.52
2018-02-10T23:34:47.659Z,100451.47
2018-02-10T23:39:49.746Z,100427.59
2018-02-10T23:44:51.103Z,100415.55
2018-02-10T23:49:53.237Z,100404.72
2018-02-10T23:54:54.582Z,100401.42
2018-02-10T23:59:55.942Z,100390.05
